createdAt,value
2018-06-17T00:00:10.933Z,8.24
2018-06-17T00:00:23.601Z,8.24
2018-06-17T00:00:36.095Z,8.24
2018-06-17T00:00:48.523Z,8.24
2018-06-17T00:01:01.088Z,8.24
2018-06-17T00:01:13.514Z,8.24
2018-06-17T00:01:25.932Z,8.24
2018-06-17T00:01:38.364Z,8.24
2018-06-17T00:01:50.796Z,8.24
2018-06-17T00:02:03.207Z,8.24
2018-06-17T00:02:15.606Z,8.24
2018-06-17T00:02:28.024Z,8.24
2018-06-17T00:02:40.616Z,8.24
2018-06-17T00:02:53.019Z,8.24
2018-06-17T00:03:05.438Z,8.24
2018-06-17T00:03:17.874Z,8.24
2018-06-17T00:03:30.299Z,8.24
2018-06-17T00:03:42.714Z,8.24
2018-06-17T00:03:55.128Z,8.24
2018-06-17T00:04:07.539Z,8.24
2018-06-17T00:04:19.929Z,8.24
2018-06-17T00:04:32.323Z,8.24
2018-06-17T00:04:44.723Z,8.24
2018-06-17T00:04:57.141Z,8.24
2018-06-17T00:05:09.532Z,8.24
2018-06-17T00:05:21.987Z,8.24
2018-06-17T00:05:34.399Z,7.39
2018-06-17T00:05:46.859Z,7.39
2018-06-17T00:05:59.265Z,7.39
2018-06-17T00:06:11.696Z,7.39
2018-06-17T00:06:24.095Z,7.39
2018-06-17T00:06:36.490Z,7.39
2018-06-17T00:06:48.919Z,7.39
2018-06-17T00:07:01.477Z,7.39
2018-06-17T00:07:13.860Z,7.39
2018-06-17T00:07:26.263Z,7.39
2018-06-17T00:07:38.691Z,7.39
2018-06-17T00:07:51.222Z,7.39
2018-06-17T00:08:03.615Z,7.39
2018-06-17T00:08:16.028Z,7.39
2018-06-17T00:08:28.445Z,7.39
2018-06-17T00:08:40.843Z,7.39
2018-06-17T00:08:53.237Z,7.39
2018-06-17T00:09:05.670Z,7.39
2018-06-17T00:09:18.068Z,7.39
2018-06-17T00:09:30.492Z,7.39
2018-06-17T00:09:42.899Z,7.39
2018-06-17T00:09:55.309Z,7.39
2018-06-17T00:10:07.776Z,7.39
2018-06-17T00:10:20.188Z,7.39
2018-06-17T00:10:32.600Z,7.39
2018-06-17T00:10:45.005Z,7.39
2018-06-17T00:10:57.406Z,7.39
2018-06-17T00:11:09.816Z,7.39
2018-06-17T00:11:22.219Z,7.39
2018-06-17T00:11:34.631Z,7.39
2018-06-17T00:11:47.056Z,7.39
2018-06-17T00:11:59.468Z,7.39
2018-06-17T00:12:11.864Z,7.39
2018-06-17T00:12:24.271Z,7.39
2018-06-17T00:12:36.660Z,7.39
2018-06-17T00:12:49.101Z,7.39
2018-06-17T00:13:01.497Z,7.39
2018-06-17T00:13:13.899Z,7.39
2018-06-17T00:13:26.291Z,7.39
2018-06-17T00:13:38.683Z,7.39
2018-06-17T00:13:51.074Z,7.39
2018-06-17T00:14:03.476Z,7.39
2018-06-17T00:14:15.890Z,7.39
2018-06-17T00:14:28.331Z,7.39
2018-06-17T00:14:40.736Z,7.39
2018-06-17T00:14:53.159Z,7.39
2018-06-17T00:15:05.575Z,7.39
2018-06-17T00:15:17.970Z,7.39
2018-06-17T00:15:30.376Z,7.9
2018-06-17T00:15:42.795Z,7.9
2018-06-17T00:15:55.210Z,7.9
2018-06-17T00:16:07.656Z,7.9
2018-06-17T00:16:20.103Z,7.9
2018-06-17T00:16:32.518Z,7.9
2018-06-17T00:16:44.921Z,7.9
2018-06-17T00:16:57.303Z,7.9
2018-06-17T00:17:09.713Z,7.9
2018-06-17T00:17:22.100Z,7.9
2018-06-17T00:17:34.494Z,7.9
2018-06-17T00:17:46.892Z,7.9
2018-06-17T00:17:59.488Z,7.9
2018-06-17T00:18:11.907Z,7.9
2018-06-17T00:18:24.300Z,7.9
2018-06-17T00:18:36.690Z,7.9
2018-06-17T00:18:49.099Z,7.9
2018-06-17T00:19:01.517Z,7.9
2018-06-17T00:19:14.412Z,7.9
2018-06-17T00:19:26.824Z,7.9
2018-06-17T00:19:39.208Z,7.9
2018-06-17T00:19:51.656Z,7.9
2018-06-17T00:20:04.064Z,7.9
2018-06-17T00:20:16.454Z,7.9
2018-06-17T00:20:28.852Z,7.9
2018-06-17T00:20:41.255Z,7.9
2018-06-17T00:20:53.656Z,7.9
2018-06-17T00:21:06.079Z,7.9
2018-06-17T00:21:18.506Z,7.9
2018-06-17T00:21:30.905Z,7.9
2018-06-17T00:21:43.287Z,7.9
2018-06-17T00:21:55.708Z,7.9
2018-06-17T00:22:08.083Z,7.9
2018-06-17T00:22:20.467Z,7.9
2018-06-17T00:22:32.868Z,7.9
2018-06-17T00:22:45.347Z,7.9
2018-06-17T00:22:57.814Z,7.9
2018-06-17T00:23:10.238Z,7.9
2018-06-17T00:23:22.633Z,7.9
2018-06-17T00:23:35.066Z,7.9
2018-06-17T00:23:47.511Z,7.9
2018-06-17T00:23:59.936Z,7.9
2018-06-17T00:24:12.369Z,7.9
2018-06-17T00:24:24.756Z,7.9
2018-06-17T00:24:37.147Z,7.9
2018-06-17T00:24:49.556Z,7.9
2018-06-17T00:25:02.200Z,7.9
2018-06-17T00:25:14.592Z,7.9
2018-06-17T00:25:26.998Z,7.9
2018-06-17T00:25:39.405Z,9.78
2018-06-17T00:25:51.815Z,9.78
2018-06-17T00:26:04.217Z,9.78
2018-06-17T00:26:16.624Z,9.78
2018-06-17T00:26:29.032Z,9.78
2018-06-17T00:26:41.463Z,9.78
2018-06-17T00:26:53.870Z,9.78
2018-06-17T00:27:06.290Z,9.78
2018-06-17T00:27:18.847Z,9.78
2018-06-17T00:27:31.242Z,9.78
2018-06-17T00:27:43.650Z,9.78
2018-06-17T00:27:56.036Z,9.78
2018-06-17T00:28:08.429Z,9.78
2018-06-17T00:28:20.824Z,9.78
2018-06-17T00:28:33.221Z,9.78
2018-06-17T00:28:45.633Z,9.78
2018-06-17T00:28:58.194Z,9.78
2018-06-17T00:29:10.584Z,9.78
2018-06-17T00:29:22.994Z,9.78
2018-06-17T00:29:35.392Z,9.78
2018-06-17T00:29:47.774Z,9.78
2018-06-17T00:30:00.155Z,9.78
2018-06-17T00:30:12.577Z,9.78
2018-06-17T00:30:24.980Z,9.78
2018-06-17T00:30:37.403Z,9.78
2018-06-17T00:30:49.799Z,9.78
2018-06-17T00:31:02.189Z,9.78
2018-06-17T00:31:14.592Z,9.78
2018-06-17T00:31:27.006Z,9.78
2018-06-17T00:31:39.389Z,9.78
2018-06-17T00:31:51.790Z,9.78
2018-06-17T00:32:04.175Z,9.78
2018-06-17T00:32:16.575Z,9.78
2018-06-17T00:32:28.971Z,9.78
2018-06-17T00:32:41.406Z,9.78
2018-06-17T00:32:53.792Z,9.78
2018-06-17T00:33:06.201Z,9.78
2018-06-17T00:33:18.650Z,9.78
2018-06-17T00:33:31.046Z,9.78
2018-06-17T00:33:43.609Z,9.78
2018-06-17T00:33:56.021Z,9.78
2018-06-17T00:34:08.413Z,9.78
2018-06-17T00:34:20.864Z,9.78
2018-06-17T00:34:33.282Z,9.78
2018-06-17T00:34:45.686Z,9.78
2018-06-17T00:34:58.096Z,9.78
2018-06-17T00:35:10.502Z,9.78
2018-06-17T00:35:22.908Z,9.78
2018-06-17T00:35:35.358Z,10.06
2018-06-17T00:35:47.747Z,10.06
2018-06-17T00:36:00.146Z,10.06
2018-06-17T00:36:12.540Z,10.06
2018-06-17T00:36:24.926Z,10.06
2018-06-17T00:36:37.345Z,10.06
2018-06-17T00:36:49.740Z,10.06
2018-06-17T00:37:02.128Z,10.06
2018-06-17T00:37:14.548Z,10.06
2018-06-17T00:37:26.943Z,10.06
2018-06-17T00:37:39.347Z,10.06
2018-06-17T00:37:51.731Z,10.06
2018-06-17T00:38:04.262Z,10.06
2018-06-17T00:38:16.710Z,10.06
2018-06-17T00:38:29.107Z,10.06
2018-06-17T00:38:41.502Z,10.06
2018-06-17T00:38:53.901Z,10.06
2018-06-17T00:39:06.409Z,10.06
2018-06-17T00:39:18.914Z,10.06
2018-06-17T00:39:31.340Z,10.06
2018-06-17T00:39:43.741Z,10.06
2018-06-17T00:39:56.144Z,10.06
2018-06-17T00:40:08.552Z,10.06
2018-06-17T00:40:20.981Z,10.06
2018-06-17T00:40:33.385Z,10.06
2018-06-17T00:40:45.774Z,10.06
2018-06-17T00:40:58.175Z,10.06
2018-06-17T00:41:10.574Z,10.06
2018-06-17T00:41:22.966Z,10.06
2018-06-17T00:41:35.357Z,10.06
2018-06-17T00:41:47.839Z,10.06
2018-06-17T00:42:00.243Z,10.06
2018-06-17T00:42:12.655Z,10.06
2018-06-17T00:42:25.062Z,10.06
2018-06-17T00:42:37.472Z,10.06
2018-06-17T00:42:49.855Z,10.06
2018-06-17T00:43:02.256Z,10.06
2018-06-17T00:43:14.666Z,10.06
2018-06-17T00:43:27.059Z,10.06
2018-06-17T00:43:39.453Z,10.06
2018-06-17T00:43:51.920Z,10.06
2018-06-17T00:44:04.321Z,10.06
2018-06-17T00:44:16.732Z,10.06
2018-06-17T00:44:29.130Z,10.06
2018-06-17T00:44:41.518Z,10.06
2018-06-17T00:44:53.913Z,10.06
2018-06-17T00:45:06.331Z,10.06
2018-06-17T00:45:18.730Z,10.06
2018-06-17T00:45:31.152Z,9.15
2018-06-17T00:45:43.536Z,9.15
2018-06-17T00:45:56.063Z,9.15
2018-06-17T00:46:08.455Z,9.15
2018-06-17T00:46:20.868Z,9.15
2018-06-17T00:46:33.256Z,9.15
2018-06-17T00:46:45.651Z,9.15
2018-06-17T00:46:58.113Z,9.15
2018-06-17T00:47:10.731Z,9.15
2018-06-17T00:47:23.959Z,9.15
2018-06-17T00:47:36.376Z,9.15
2018-06-17T00:47:48.801Z,9.15
2018-06-17T00:48:01.218Z,9.15
2018-06-17T00:48:13.619Z,9.15
2018-06-17T00:48:26.122Z,9.15
2018-06-17T00:48:38.805Z,9.15
2018-06-17T00:48:51.209Z,9.15
2018-06-17T00:49:03.634Z,9.15
2018-06-17T00:49:16.049Z,9.15
2018-06-17T00:49:28.437Z,9.15
2018-06-17T00:49:40.827Z,9.15
2018-06-17T00:49:53.245Z,9.15
2018-06-17T00:50:05.680Z,9.15
2018-06-17T00:50:18.075Z,9.15
2018-06-17T00:50:30.486Z,9.15
2018-06-17T00:50:42.898Z,9.15
2018-06-17T00:50:55.281Z,9.15
2018-06-17T00:51:07.723Z,9.15
2018-06-17T00:51:20.160Z,9.15
2018-06-17T00:51:32.558Z,9.15
2018-06-17T00:51:44.955Z,9.15
2018-06-17T00:51:57.371Z,9.15
2018-06-17T00:52:09.769Z,9.15
2018-06-17T00:52:22.174Z,9.15
2018-06-17T00:52:34.589Z,9.15
2018-06-17T00:52:46.983Z,9.15
2018-06-17T00:52:59.380Z,9.15
2018-06-17T00:53:12.122Z,9.15
2018-06-17T00:53:24.519Z,9.15
2018-06-17T00:53:36.912Z,9.15
2018-06-17T00:53:49.314Z,9.15
2018-06-17T00:54:01.713Z,9.15
2018-06-17T00:54:14.101Z,9.15
2018-06-17T00:54:26.531Z,9.15
2018-06-17T00:54:38.932Z,9.15
2018-06-17T00:54:51.336Z,9.15
2018-06-17T00:55:03.781Z,9.15
2018-06-17T00:55:16.187Z,9.15
2018-06-17T00:55:28.616Z,9.15
2018-06-17T00:55:41.022Z,8.07
2018-06-17T00:55:53.433Z,8.07
2018-06-17T00:56:05.836Z,8.07
2018-06-17T00:56:18.238Z,8.07
2018-06-17T00:56:30.617Z,8.07
2018-06-17T00:56:43.038Z,8.07
2018-06-17T00:56:55.437Z,8.07
2018-06-17T00:57:07.849Z,8.07
2018-06-17T00:57:20.237Z,8.07
2018-06-17T00:57:32.645Z,8.07
2018-06-17T00:57:45.071Z,8.07
2018-06-17T00:57:57.452Z,8.07
2018-06-17T00:58:09.865Z,8.07
2018-06-17T00:58:22.258Z,8.07
2018-06-17T00:58:34.662Z,8.07
2018-06-17T00:58:47.059Z,8.07
2018-06-17T00:58:59.454Z,8.07
2018-06-17T00:59:11.859Z,8.07
2018-06-17T00:59:24.267Z,8.07
2018-06-17T00:59:36.676Z,8.07
2018-06-17T00:59:49.048Z,8.07
2018-06-17T01:00:01.430Z,8.07
2018-06-17T01:00:13.877Z,8.07
2018-06-17T01:00:26.314Z,8.07
2018-06-17T01:00:38.746Z,8.07
2018-06-17T01:00:51.177Z,8.07
2018-06-17T01:01:03.743Z,8.07
2018-06-17T01:01:16.159Z,8.07
2018-06-17T01:01:28.563Z,8.07
2018-06-17T01:01:40.956Z,8.07
2018-06-17T01:01:53.385Z,8.07
2018-06-17T01:02:05.796Z,8.07
2018-06-17T01:02:18.222Z,8.07
2018-06-17T01:02:30.797Z,8.07
2018-06-17T01:02:43.219Z,8.07
2018-06-17T01:02:55.638Z,8.07
2018-06-17T01:03:08.066Z,8.07
2018-06-17T01:03:20.486Z,8.07
2018-06-17T01:03:32.899Z,8.07
2018-06-17T01:03:45.291Z,8.07
2018-06-17T01:03:57.691Z,8.07
2018-06-17T01:04:10.125Z,8.07
2018-06-17T01:04:22.530Z,8.07
2018-06-17T01:04:35.022Z,8.07
2018-06-17T01:04:47.434Z,8.07
2018-06-17T01:04:59.867Z,8.07
2018-06-17T01:05:12.393Z,8.07
2018-06-17T01:05:24.807Z,8.07
2018-06-17T01:05:37.224Z,9.94
2018-06-17T01:05:49.649Z,9.94
2018-06-17T01:06:02.059Z,9.94
2018-06-17T01:06:14.457Z,9.94
2018-06-17T01:06:26.855Z,9.94
2018-06-17T01:06:39.249Z,9.94
2018-06-17T01:06:51.651Z,9.94
2018-06-17T01:07:04.209Z,9.94
2018-06-17T01:07:16.603Z,9.94
2018-06-17T01:07:29.015Z,9.94
2018-06-17T01:07:41.428Z,9.94
2018-06-17T01:07:53.880Z,9.94
2018-06-17T01:08:06.281Z,9.94
2018-06-17T01:08:18.704Z,9.94
2018-06-17T01:08:31.097Z,9.94
2018-06-17T01:08:43.524Z,9.94
2018-06-17T01:08:55.917Z,9.94
2018-06-17T01:09:08.318Z,9.94
2018-06-17T01:09:20.722Z,9.94
2018-06-17T01:09:33.120Z,9.94
2018-06-17T01:09:45.532Z,9.94
2018-06-17T01:09:57.960Z,9.94
2018-06-17T01:10:10.357Z,9.94
2018-06-17T01:10:22.758Z,9.94
2018-06-17T01:10:35.175Z,9.94
2018-06-17T01:10:47.649Z,9.94
2018-06-17T01:11:00.056Z,9.94
2018-06-17T01:11:12.467Z,9.94
2018-06-17T01:11:24.885Z,9.94
2018-06-17T01:11:37.281Z,9.94
2018-06-17T01:11:49.761Z,9.94
2018-06-17T01:12:02.247Z,9.94
2018-06-17T01:12:14.656Z,9.94
2018-06-17T01:12:27.087Z,9.94
2018-06-17T01:12:39.485Z,9.94
2018-06-17T01:12:51.892Z,9.94
2018-06-17T01:13:04.294Z,9.94
2018-06-17T01:13:16.865Z,9.94
2018-06-17T01:13:29.266Z,9.94
2018-06-17T01:13:41.697Z,9.94
2018-06-17T01:13:54.111Z,9.94
2018-06-17T01:14:06.514Z,9.94
2018-06-17T01:14:18.912Z,9.94
2018-06-17T01:14:31.318Z,9.94
2018-06-17T01:14:43.735Z,9.94
2018-06-17T01:14:56.127Z,9.94
2018-06-17T01:15:08.526Z,9.94
2018-06-17T01:15:20.938Z,9.94
2018-06-17T01:15:33.343Z,10.27
2018-06-17T01:15:45.747Z,10.27
2018-06-17T01:15:58.151Z,10.27
2018-06-17T01:16:10.566Z,10.27
2018-06-17T01:16:23.009Z,10.27
2018-06-17T01:16:35.454Z,10.27
2018-06-17T01:16:47.859Z,10.27
2018-06-17T01:17:00.265Z,10.27
2018-06-17T01:17:12.732Z,10.27
2018-06-17T01:17:25.203Z,10.27
2018-06-17T01:17:37.652Z,10.27
2018-06-17T01:17:50.026Z,10.27
2018-06-17T01:18:02.597Z,10.27
2018-06-17T01:18:14.998Z,10.27
2018-06-17T01:18:27.395Z,10.27
2018-06-17T01:18:39.791Z,10.27
2018-06-17T01:18:52.364Z,10.27
2018-06-17T01:19:05.358Z,10.27
2018-06-17T01:19:17.804Z,10.27
2018-06-17T01:19:30.193Z,10.27
2018-06-17T01:19:42.615Z,10.27
2018-06-17T01:19:55.015Z,10.27
2018-06-17T01:20:07.422Z,10.27
2018-06-17T01:20:19.859Z,10.27
2018-06-17T01:20:32.313Z,10.27
2018-06-17T01:20:44.745Z,10.27
2018-06-17T01:20:57.178Z,10.27
2018-06-17T01:21:09.592Z,10.27
2018-06-17T01:21:22.011Z,10.27
2018-06-17T01:21:34.463Z,10.27
2018-06-17T01:21:46.862Z,10.27
2018-06-17T01:21:59.253Z,10.27
2018-06-17T01:22:11.666Z,10.27
2018-06-17T01:22:24.096Z,10.27
2018-06-17T01:22:36.514Z,10.27
2018-06-17T01:22:48.938Z,10.27
2018-06-17T01:23:01.342Z,10.27
2018-06-17T01:23:13.733Z,10.27
2018-06-17T01:23:26.108Z,10.27
2018-06-17T01:23:38.496Z,10.27
2018-06-17T01:23:50.908Z,10.27
2018-06-17T01:24:03.314Z,10.27
2018-06-17T01:24:15.733Z,10.27
2018-06-17T01:24:28.141Z,10.27
2018-06-17T01:24:40.535Z,10.27
2018-06-17T01:24:53.082Z,10.27
2018-06-17T01:25:05.729Z,10.27
2018-06-17T01:25:18.149Z,10.27
2018-06-17T01:25:30.531Z,10.27
2018-06-17T01:25:42.952Z,10.16
2018-06-17T01:25:55.381Z,10.16
2018-06-17T01:26:07.777Z,10.16
2018-06-17T01:26:20.226Z,10.16
2018-06-17T01:26:32.762Z,10.16
2018-06-17T01:26:45.141Z,10.16
2018-06-17T01:26:57.542Z,10.16
2018-06-17T01:27:09.952Z,10.16
2018-06-17T01:27:22.497Z,10.16
2018-06-17T01:27:34.913Z,10.16
2018-06-17T01:27:47.308Z,10.16
2018-06-17T01:27:59.712Z,10.16
2018-06-17T01:28:12.143Z,10.16
2018-06-17T01:28:24.573Z,10.16
2018-06-17T01:28:36.974Z,10.16
2018-06-17T01:28:49.388Z,10.16
2018-06-17T01:29:01.804Z,10.16
2018-06-17T01:29:14.216Z,10.16
2018-06-17T01:29:26.592Z,10.16
2018-06-17T01:29:38.994Z,10.16
2018-06-17T01:29:51.391Z,10.16
2018-06-17T01:30:04.042Z,10.16
2018-06-17T01:30:16.452Z,10.16
2018-06-17T01:30:28.858Z,10.16
2018-06-17T01:30:41.268Z,10.16
2018-06-17T01:30:53.654Z,10.16
2018-06-17T01:31:06.064Z,10.16
2018-06-17T01:31:18.471Z,10.16
2018-06-17T01:31:30.879Z,10.16
2018-06-17T01:31:43.269Z,10.16
2018-06-17T01:31:55.683Z,10.16
2018-06-17T01:32:08.113Z,10.16
2018-06-17T01:32:20.489Z,10.16
2018-06-17T01:32:32.883Z,10.16
2018-06-17T01:32:45.299Z,10.16
2018-06-17T01:32:57.709Z,10.16
2018-06-17T01:33:10.099Z,10.16
2018-06-17T01:33:22.522Z,10.16
2018-06-17T01:33:34.913Z,10.16
2018-06-17T01:33:47.317Z,10.16
2018-06-17T01:33:59.709Z,10.16
2018-06-17T01:34:12.120Z,10.16
2018-06-17T01:34:24.516Z,10.16
2018-06-17T01:34:36.923Z,10.16
2018-06-17T01:34:49.325Z,10.16
2018-06-17T01:35:01.920Z,10.16
2018-06-17T01:35:14.330Z,10.16
2018-06-17T01:35:26.740Z,10.16
2018-06-17T01:35:39.218Z,13.61
2018-06-17T01:35:51.629Z,13.61
2018-06-17T01:36:04.011Z,13.61
2018-06-17T01:36:16.409Z,13.61
2018-06-17T01:36:28.805Z,13.61
2018-06-17T01:36:41.202Z,13.61
2018-06-17T01:36:53.610Z,13.61
2018-06-17T01:37:06.034Z,13.61
2018-06-17T01:37:18.422Z,13.61
2018-06-17T01:37:30.823Z,13.61
2018-06-17T01:37:43.221Z,13.61
2018-06-17T01:37:55.609Z,13.61
2018-06-17T01:38:08.018Z,13.61
2018-06-17T01:38:20.423Z,13.61
2018-06-17T01:38:32.800Z,13.61
2018-06-17T01:38:45.242Z,13.61
2018-06-17T01:38:57.624Z,13.61
2018-06-17T01:39:10.031Z,13.61
2018-06-17T01:39:22.436Z,13.61
2018-06-17T01:39:34.831Z,13.61
2018-06-17T01:39:47.216Z,13.61
2018-06-17T01:39:59.791Z,13.61
2018-06-17T01:40:12.195Z,13.61
2018-06-17T01:40:24.613Z,13.61
2018-06-17T01:40:37.018Z,13.61
2018-06-17T01:40:49.437Z,13.61
2018-06-17T01:41:01.834Z,13.61
2018-06-17T01:41:14.372Z,13.61
2018-06-17T01:41:26.797Z,13.61
2018-06-17T01:41:39.204Z,13.61
2018-06-17T01:41:51.987Z,13.61
2018-06-17T01:42:04.379Z,13.61
2018-06-17T01:42:16.777Z,13.61
2018-06-17T01:42:29.199Z,13.61
2018-06-17T01:42:41.613Z,13.61
2018-06-17T01:42:54.009Z,13.61
2018-06-17T01:43:06.419Z,13.61
2018-06-17T01:43:18.813Z,13.61
2018-06-17T01:43:31.237Z,13.61
2018-06-17T01:43:43.624Z,13.61
2018-06-17T01:43:56.030Z,13.61
2018-06-17T01:44:08.429Z,13.61
2018-06-17T01:44:20.869Z,13.61
2018-06-17T01:44:33.245Z,13.61
2018-06-17T01:44:45.653Z,13.61
2018-06-17T01:44:58.038Z,13.61
2018-06-17T01:45:10.429Z,13.61
2018-06-17T01:45:22.824Z,13.61
2018-06-17T01:45:35.231Z,12.3
2018-06-17T01:45:47.620Z,12.3
2018-06-17T01:46:00.173Z,12.3
2018-06-17T01:46:12.566Z,12.3
2018-06-17T01:46:24.975Z,12.3
2018-06-17T01:46:37.357Z,12.3
2018-06-17T01:46:49.751Z,12.3
2018-06-17T01:47:02.137Z,12.3
2018-06-17T01:47:14.558Z,12.3
2018-06-17T01:47:26.976Z,12.3
2018-06-17T01:47:39.387Z,12.3
2018-06-17T01:47:51.782Z,12.3
2018-06-17T01:48:04.166Z,12.3
2018-06-17T01:48:16.594Z,12.3
2018-06-17T01:48:28.997Z,12.3
2018-06-17T01:48:41.531Z,12.3
2018-06-17T01:48:53.929Z,12.3
2018-06-17T01:49:06.345Z,12.3
2018-06-17T01:49:18.739Z,12.3
2018-06-17T01:49:31.116Z,12.3
2018-06-17T01:49:43.523Z,12.3
2018-06-17T01:49:55.936Z,12.3
2018-06-17T01:50:08.344Z,12.3
2018-06-17T01:50:20.728Z,12.3
2018-06-17T01:50:33.216Z,12.3
2018-06-17T01:50:46.222Z,12.3
2018-06-17T01:50:58.698Z,12.3
2018-06-17T01:51:11.084Z,12.3
2018-06-17T01:51:23.477Z,12.3
2018-06-17T01:51:35.877Z,12.3
2018-06-17T01:51:48.477Z,12.3
2018-06-17T01:52:00.927Z,12.3
2018-06-17T01:52:13.330Z,12.3
2018-06-17T01:52:25.764Z,12.3
2018-06-17T01:52:38.241Z,12.3
2018-06-17T01:52:50.691Z,12.3
2018-06-17T01:53:03.116Z,12.3
2018-06-17T01:53:15.544Z,12.3
2018-06-17T01:53:27.980Z,12.3
2018-06-17T01:53:40.403Z,12.3
2018-06-17T01:53:52.962Z,12.3
2018-06-17T01:54:05.387Z,12.3
2018-06-17T01:54:17.795Z,12.3
2018-06-17T01:54:30.217Z,12.3
2018-06-17T01:54:42.601Z,12.3
2018-06-17T01:54:54.981Z,12.3
2018-06-17T01:55:07.379Z,12.3
2018-06-17T01:55:19.789Z,12.3
2018-06-17T01:55:32.194Z,10.84
2018-06-17T01:55:44.603Z,10.84
2018-06-17T01:55:57.003Z,10.84
2018-06-17T01:56:09.398Z,10.84
2018-06-17T01:56:21.791Z,10.84
2018-06-17T01:56:34.203Z,10.84
2018-06-17T01:56:46.638Z,10.84
2018-06-17T01:56:59.060Z,10.84
2018-06-17T01:57:11.453Z,10.84
2018-06-17T01:57:23.836Z,10.84
2018-06-17T01:57:36.234Z,10.84
2018-06-17T01:57:48.621Z,10.84
2018-06-17T01:58:01.047Z,10.84
2018-06-17T01:58:13.444Z,10.84
2018-06-17T01:58:25.841Z,10.84
2018-06-17T01:58:38.222Z,10.84
2018-06-17T01:58:50.665Z,10.84
2018-06-17T01:59:03.071Z,10.84
2018-06-17T01:59:15.485Z,10.84
2018-06-17T01:59:27.936Z,10.84
2018-06-17T01:59:40.326Z,10.84
2018-06-17T01:59:52.729Z,10.84
2018-06-17T02:00:05.163Z,10.84
2018-06-17T02:00:17.580Z,10.84
2018-06-17T02:00:30.035Z,10.84
2018-06-17T02:00:42.466Z,10.84
2018-06-17T02:00:54.901Z,10.84
2018-06-17T02:01:07.541Z,10.84
2018-06-17T02:01:19.969Z,10.84
2018-06-17T02:01:32.418Z,10.84
2018-06-17T02:01:44.830Z,10.84
2018-06-17T02:01:57.290Z,10.84
2018-06-17T02:02:09.696Z,10.84
2018-06-17T02:02:22.106Z,10.84
2018-06-17T02:02:34.676Z,10.84
2018-06-17T02:02:47.090Z,10.84
2018-06-17T02:02:59.494Z,10.84
2018-06-17T02:03:11.906Z,10.84
2018-06-17T02:03:24.347Z,10.84
2018-06-17T02:03:36.762Z,10.84
2018-06-17T02:03:49.191Z,10.84
2018-06-17T02:04:01.580Z,10.84
2018-06-17T02:04:14.028Z,10.84
2018-06-17T02:04:26.492Z,10.84
2018-06-17T02:04:38.903Z,10.84
2018-06-17T02:04:51.295Z,10.84
2018-06-17T02:05:03.722Z,10.84
2018-06-17T02:05:16.139Z,10.84
2018-06-17T02:05:28.553Z,10.84
2018-06-17T02:05:40.956Z,12.79
2018-06-17T02:05:53.379Z,12.79
2018-06-17T02:06:05.789Z,12.79
2018-06-17T02:06:18.192Z,12.79
2018-06-17T02:06:30.579Z,12.79
2018-06-17T02:06:43.035Z,12.79
2018-06-17T02:06:55.722Z,12.79
2018-06-17T02:07:08.287Z,12.79
2018-06-17T02:07:20.680Z,12.79
2018-06-17T02:07:33.084Z,12.79
2018-06-17T02:07:45.477Z,12.79
2018-06-17T02:07:57.889Z,12.79
2018-06-17T02:08:10.292Z,12.79
2018-06-17T02:08:22.771Z,12.79
2018-06-17T02:08:35.166Z,12.79
2018-06-17T02:08:47.557Z,12.79
2018-06-17T02:08:59.962Z,12.79
2018-06-17T02:09:12.373Z,12.79
2018-06-17T02:09:24.773Z,12.79
2018-06-17T02:09:37.194Z,12.79
2018-06-17T02:09:49.586Z,12.79
2018-06-17T02:10:02.002Z,12.79
2018-06-17T02:10:14.390Z,12.79
2018-06-17T02:10:26.779Z,12.79
2018-06-17T02:10:39.196Z,12.79
2018-06-17T02:10:51.607Z,12.79
2018-06-17T02:11:04.006Z,12.79
2018-06-17T02:11:16.421Z,12.79
2018-06-17T02:11:28.818Z,12.79
2018-06-17T02:11:41.232Z,12.79
2018-06-17T02:11:53.629Z,12.79
2018-06-17T02:12:06.094Z,12.79
2018-06-17T02:12:18.490Z,12.79
2018-06-17T02:12:30.896Z,12.79
2018-06-17T02:12:43.302Z,12.79
2018-06-17T02:12:55.681Z,12.79
2018-06-17T02:13:08.085Z,12.79
2018-06-17T02:13:20.480Z,12.79
2018-06-17T02:13:32.905Z,12.79
2018-06-17T02:13:45.330Z,12.79
2018-06-17T02:13:57.756Z,12.79
2018-06-17T02:14:10.224Z,12.79
2018-06-17T02:14:22.624Z,12.79
2018-06-17T02:14:35.020Z,12.79
2018-06-17T02:14:47.418Z,12.79
2018-06-17T02:14:59.835Z,12.79
2018-06-17T02:15:12.225Z,12.79
2018-06-17T02:15:24.620Z,12.79
2018-06-17T02:15:37.021Z,13.4
2018-06-17T02:15:49.419Z,13.4
2018-06-17T02:16:01.841Z,13.4
2018-06-17T02:16:14.264Z,13.4
2018-06-17T02:16:26.681Z,13.4
2018-06-17T02:16:39.071Z,13.4
2018-06-17T02:16:51.465Z,13.4
2018-06-17T02:17:03.886Z,13.4
2018-06-17T02:17:16.290Z,13.4
2018-06-17T02:17:28.696Z,13.4
2018-06-17T02:17:41.092Z,13.4
2018-06-17T02:17:53.628Z,13.4
2018-06-17T02:18:06.021Z,13.4
2018-06-17T02:18:18.454Z,13.4
2018-06-17T02:18:30.854Z,13.4
2018-06-17T02:18:43.266Z,13.4
2018-06-17T02:18:55.650Z,13.4
2018-06-17T02:19:08.300Z,13.4
2018-06-17T02:19:20.721Z,13.4
2018-06-17T02:19:33.145Z,13.4
2018-06-17T02:19:45.541Z,13.4
2018-06-17T02:19:57.950Z,13.4
2018-06-17T02:20:10.356Z,13.4
2018-06-17T02:20:22.776Z,13.4
2018-06-17T02:20:35.170Z,13.4
2018-06-17T02:20:47.557Z,13.4
2018-06-17T02:20:59.944Z,13.4
2018-06-17T02:21:12.348Z,13.4
2018-06-17T02:21:24.760Z,13.4
2018-06-17T02:21:37.168Z,13.4
2018-06-17T02:21:49.559Z,13.4
2018-06-17T02:22:02.007Z,13.4
2018-06-17T02:22:14.389Z,13.4
2018-06-17T02:22:26.790Z,13.4
2018-06-17T02:22:39.203Z,13.4
2018-06-17T02:22:51.598Z,13.4
2018-06-17T02:23:04.031Z,13.4
2018-06-17T02:23:16.426Z,13.4
2018-06-17T02:23:28.817Z,13.4
2018-06-17T02:23:41.228Z,13.4
2018-06-17T02:23:53.633Z,13.4
2018-06-17T02:24:06.274Z,13.4
2018-06-17T02:24:18.671Z,13.4
2018-06-17T02:24:31.064Z,13.4
2018-06-17T02:24:43.476Z,13.4
2018-06-17T02:24:55.975Z,13.4
2018-06-17T02:25:08.511Z,13.4
2018-06-17T02:25:20.904Z,13.4
2018-06-17T02:25:33.312Z,13.4
2018-06-17T02:25:45.701Z,12.35
2018-06-17T02:25:58.105Z,12.35
2018-06-17T02:26:10.522Z,12.35
2018-06-17T02:26:22.920Z,12.35
2018-06-17T02:26:35.320Z,12.35
2018-06-17T02:26:47.725Z,12.35
2018-06-17T02:27:00.140Z,12.35
2018-06-17T02:27:12.547Z,12.35
2018-06-17T02:27:25.071Z,12.35
2018-06-17T02:27:37.478Z,12.35
2018-06-17T02:27:49.870Z,12.35
2018-06-17T02:28:02.279Z,12.35
2018-06-17T02:28:14.669Z,12.35
2018-06-17T02:28:27.064Z,12.35
2018-06-17T02:28:39.465Z,12.35
2018-06-17T02:28:51.861Z,12.35
2018-06-17T02:29:04.242Z,12.35
2018-06-17T02:29:16.653Z,12.35
2018-06-17T02:29:29.055Z,12.35
2018-06-17T02:29:41.461Z,12.35
2018-06-17T02:29:53.858Z,12.35
2018-06-17T02:30:06.264Z,12.35
2018-06-17T02:30:18.698Z,12.35
2018-06-17T02:30:31.115Z,12.35
2018-06-17T02:30:43.531Z,12.35
2018-06-17T02:30:55.936Z,12.35
2018-06-17T02:31:08.376Z,12.35
2018-06-17T02:31:20.792Z,12.35
2018-06-17T02:31:33.221Z,12.35
2018-06-17T02:31:45.716Z,12.35
2018-06-17T02:31:58.123Z,12.35
2018-06-17T02:32:10.536Z,12.35
2018-06-17T02:32:23.028Z,12.35
2018-06-17T02:32:35.523Z,12.35
2018-06-17T02:32:47.957Z,12.35
2018-06-17T02:33:00.372Z,12.35
2018-06-17T02:33:13.045Z,12.35
2018-06-17T02:33:25.453Z,12.35
2018-06-17T02:33:37.944Z,12.35
2018-06-17T02:33:50.351Z,12.35
2018-06-17T02:34:02.775Z,12.35
2018-06-17T02:34:15.194Z,12.35
2018-06-17T02:34:27.633Z,12.35
2018-06-17T02:34:40.043Z,12.35
2018-06-17T02:34:52.461Z,12.35
2018-06-17T02:35:04.957Z,12.35
2018-06-17T02:35:17.365Z,12.35
2018-06-17T02:35:29.820Z,12.35
2018-06-17T02:35:42.235Z,11.17
2018-06-17T02:35:54.643Z,11.17
2018-06-17T02:36:07.051Z,11.17
2018-06-17T02:36:19.496Z,11.17
2018-06-17T02:36:31.910Z,11.17
2018-06-17T02:36:44.337Z,11.17
2018-06-17T02:36:56.777Z,11.17
2018-06-17T02:37:09.247Z,11.17
2018-06-17T02:37:21.665Z,11.17
2018-06-17T02:37:34.081Z,11.17
2018-06-17T02:37:46.509Z,11.17
2018-06-17T02:37:58.933Z,11.17
2018-06-17T02:38:11.350Z,11.17
2018-06-17T02:38:23.865Z,11.17
2018-06-17T02:38:36.274Z,11.17
2018-06-17T02:38:48.688Z,11.17
2018-06-17T02:39:01.106Z,11.17
2018-06-17T02:39:13.578Z,11.17
2018-06-17T02:39:25.992Z,11.17
2018-06-17T02:39:38.400Z,11.17
2018-06-17T02:39:50.827Z,11.17
2018-06-17T02:40:03.246Z,11.17
2018-06-17T02:40:15.660Z,11.17
2018-06-17T02:40:28.231Z,11.17
2018-06-17T02:40:40.643Z,11.17
2018-06-17T02:40:53.060Z,11.17
2018-06-17T02:41:05.458Z,11.17
2018-06-17T02:41:17.881Z,11.17
2018-06-17T02:41:30.309Z,11.17
2018-06-17T02:41:42.773Z,11.17
2018-06-17T02:41:55.274Z,11.17
2018-06-17T02:42:07.730Z,11.17
2018-06-17T02:42:20.160Z,11.17
2018-06-17T02:42:32.559Z,11.17
2018-06-17T02:42:44.973Z,11.17
2018-06-17T02:42:57.405Z,11.17
2018-06-17T02:43:09.847Z,11.17